Time;durP1;ratioP1;P1;durP2;ratioP2;P2;SDS_P1;SDS_P2;PMS_P1;PMS_P2;Temp;Humidity;BMP_temperature;BMP_pressure;BME280_temperature;BME280_humidity;BME280_pressure;Samples;Min_cycle;Max_cycle;Signal;HPM_P1;HPM_P2
2022/01/27 00:05:54;;;;;;;28.05;16.08;;;;;;;7.17;100.00;102585.75;5084885;28;20682;-69
2022/01/27 00:11:17;;;;;;;27.85;16.63;;;;;;;7.30;100.00;102601.22;5066795;28;20036;-69
2022/01/27 00:13:53;;;;;;;27.90;18.05;;;;;;;7.28;100.00;102597.84;5081900;28;20581;-69
2022/01/27 00:16:28;;;;;;;31.40;17.38;;;;;;;7.20;100.00;102609.88;5101981;28;20060;-69
2022/01/27 00:18:55;;;;;;;32.70;17.73;;;;;;;7.32;100.00;102610.84;5086927;28;20459;-69
2022/01/27 00:21:24;;;;;;;31.83;17.70;;;;;;;7.44;100.00;102600.09;5085067;28;20085;-69
2022/01/27 00:23:50;;;;;;;32.70;18.17;;;;;;;7.40;100.00;102584.38;5084016;28;20028;-69
2022/01/27 00:26:17;;;;;;;35.95;18.48;;;;;;;7.21;100.00;102584.25;5083209;28;20042;-69
2022/01/27 00:28:45;;;;;;;31.60;16.45;;;;;;;7.25;100.00;102592.88;5080800;28;20338;-68
2022/01/27 00:31:11;;;;;;;34.05;17.98;;;;;;;7.27;100.00;102591.56;5083689;28;20035;-68
2022/01/27 00:33:36;;;;;;;31.98;18.00;;;;;;;7.31;100.00;102589.25;5082894;28;20020;-69
2022/01/27 00:36:03;;;;;;;29.05;17.92;;;;;;;7.16;100.00;102592.25;5084043;28;20116;-69
2022/01/27 00:38:30;;;;;;;30.92;18.25;;;;;;;7.29;100.00;102602.28;5083078;28;20035;-68
2022/01/27 00:40:55;;;;;;;36.10;20.73;;;;;;;7.06;100.00;102591.88;5064467;28;20028;-69
2022/01/27 00:43:21;;;;;;;36.10;20.13;;;;;;;6.98;100.00;102610.16;5086283;28;20092;-68
2022/01/27 00:45:47;;;;;;;38.63;19.50;;;;;;;7.22;100.00;102596.84;5102641;28;20035;-68
2022/01/27 00:48:15;;;;;;;32.83;19.20;;;;;;;7.26;100.00;102581.69;5104488;28;20043;-68
2022/01/27 00:50:41;;;;;;;32.22;19.63;;;;;;;6.97;100.00;102583.94;5104448;28;20695;-67
2022/01/27 00:53:21;;;;;;;30.85;19.38;;;;;;;6.99;100.00;102581.81;5101371;28;20020;-69
2022/01/27 00:55:46;;;;;;;36.75;19.52;;;;;;;7.10;100.00;102552.19;5102436;28;20338;-69
2022/01/27 00:58:38;;;;;;;29.35;18.75;;;;;;;7.18;100.00;102541.88;5100317;28;20126;-68
2022/01/27 01:01:02;;;;;;;29.75;19.25;;;;;;;7.05;100.00;102536.50;5104042;28;20090;-69
2022/01/27 01:03:36;;;;;;;31.52;19.77;;;;;;;7.34;100.00;102515.13;5085938;28;20043;-69
2022/01/27 01:06:33;;;;;;;29.17;18.52;;;;;;;7.06;100.00;102512.78;5086439;28;20030;-68
2022/01/27 01:09:46;;;;;;;31.48;18.77;;;;;;;7.20;100.00;102513.53;5103152;28;20047;-68
2022/01/27 01:17:00;;;;;;;36.75;19.23;;;;;;;6.93;100.00;102519.13;5101055;28;20445;-68
2022/01/27 01:19:41;;;;;;;37.20;19.85;;;;;;;6.92;100.00;102509.28;5103730;28;20499;-68
2022/01/27 01:32:57;;;;;;;41.92;20.42;;;;;;;6.84;100.00;102480.38;5082752;28;20562;-69
2022/01/27 01:35:47;;;;;;;39.72;20.33;;;;;;;6.68;100.00;102489.06;5083015;28;20420;-69
2022/01/27 01:38:14;;;;;;;37.60;19.70;;;;;;;6.63;100.00;102495.97;5081580;28;20088;-70
2022/01/27 01:40:39;;;;;;;39.40;18.88;;;;;;;6.60;100.00;102488.22;5081761;28;20177;-69
2022/01/27 01:43:05;;;;;;;36.88;19.50;;;;;;;6.78;100.00;102482.06;5082143;28;20044;-69
2022/01/27 01:45:34;;;;;;;33.60;19.73;;;;;;;6.45;100.00;102487.66;5100612;28;20477;-68
2022/01/27 01:48:01;;;;;;;34.83;19.10;;;;;;;6.50;100.00;102476.13;5105027;28;20054;-69
2022/01/27 01:50:27;;;;;;;35.90;18.95;;;;;;;6.51;100.00;102467.72;5103326;28;20036;-67
2022/01/27 01:52:53;;;;;;;30.63;18.63;;;;;;;6.50;100.00;102476.94;5104797;28;20659;-69
2022/01/27 01:55:18;;;;;;;37.78;19.77;;;;;;;6.53;100.00;102475.69;5104704;28;20024;-68
2022/01/27 01:57:45;;;;;;;36.00;19.05;;;;;;;6.77;100.00;102476.84;5099854;28;20031;-68
2022/01/27 02:00:12;;;;;;;35.35;19.67;;;;;;;6.47;100.00;102480.09;5063155;28;20185;-68
2022/01/27 02:02:40;;;;;;;33.15;18.55;;;;;;;6.51;100.00;102484.06;5082141;28;20028;-69
2022/01/27 02:05:07;;;;;;;30.17;17.55;;;;;;;6.54;100.00;102485.53;5065788;28;20160;-69
2022/01/27 02:07:54;;;;;;;36.55;18.55;;;;;;;6.61;100.00;102489.91;5105083;28;20027;-69
2022/01/27 02:18:39;;;;;;;31.85;18.50;;;;;;;6.53;100.00;102501.03;5085714;28;20042;-67
2022/01/27 02:21:04;;;;;;;33.13;18.25;;;;;;;6.67;100.00;102501.00;5087091;28;20016;-69
2022/01/27 02:23:30;;;;;;;32.28;16.92;;;;;;;6.68;100.00;102487.16;5087196;28;20027;-68
2022/01/27 02:25:55;;;;;;;37.17;17.00;;;;;;;6.74;100.00;102490.88;5105151;28;20133;-69
2022/01/27 02:28:21;;;;;;;37.38;17.65;;;;;;;6.80;100.00;102488.16;5086857;28;20449;-69
2022/01/27 02:30:46;;;;;;;27.95;15.40;;;;;;;6.72;100.00;102484.81;5085360;28;20051;-68
2022/01/27 02:33:11;;;;;;;31.58;15.57;;;;;;;6.83;100.00;102489.59;5087095;28;20473;-69
2022/01/27 02:35:37;;;;;;;30.23;15.77;;;;;;;6.85;100.00;102482.03;5083534;28;20057;-70
2022/01/27 02:38:02;;;;;;;30.52;15.07;;;;;;;6.86;100.00;102472.00;5085729;28;20110;-69
2022/01/27 02:40:37;;;;;;;29.27;15.35;;;;;;;6.96;100.00;102475.06;5087363;28;20464;-69
2022/01/27 02:43:04;;;;;;;34.22;14.90;;;;;;;7.07;100.00;102474.38;5083102;28;20448;-69
2022/01/27 02:45:50;;;;;;;31.23;15.90;;;;;;;6.90;100.00;102452.22;5084503;28;20126;-70
2022/01/27 02:48:16;;;;;;;32.55;14.55;;;;;;;7.00;100.00;102432.66;5083816;28;20028;-68
2022/01/27 02:50:43;;;;;;;27.48;14.25;;;;;;;7.18;100.00;102423.75;5083500;28;20047;-70
2022/01/27 02:53:09;;;;;;;26.98;13.25;;;;;;;6.90;100.00;102427.69;5085295;28;20032;-68
2022/01/27 02:55:35;;;;;;;24.95;13.23;;;;;;;6.85;100.00;102430.25;5083961;28;20028;-68
2022/01/27 02:58:02;;;;;;;22.75;13.27;;;;;;;6.88;100.00;102418.91;5064699;28;20036;-69
2022/01/27 03:00:27;;;;;;;30.13;14.18;;;;;;;6.91;100.00;102404.00;5100925;28;20381;-68
2022/01/27 03:02:53;;;;;;;25.15;13.57;;;;;;;6.94;100.00;102418.03;5105397;28;20035;-68
2022/01/27 03:05:18;;;;;;;29.10;13.93;;;;;;;7.02;100.00;102403.31;5104660;28;20054;-68
2022/01/27 03:07:48;;;;;;;30.17;13.32;;;;;;;6.95;100.00;102422.44;5104766;28;20032;-68
2022/01/27 03:10:18;;;;;;;30.33;13.57;;;;;;;7.01;100.00;102411.72;5105708;28;20089;-68
2022/01/27 03:12:47;;;;;;;31.08;12.80;;;;;;;6.86;100.00;102398.38;5102987;28;20115;-68
2022/01/27 03:15:13;;;;;;;26.73;13.07;;;;;;;7.02;100.00;102397.84;5084934;28;20023;-69
2022/01/27 03:17:40;;;;;;;27.67;12.50;;;;;;;6.95;100.00;102408.81;5103274;28;20311;-69
2022/01/27 03:20:08;;;;;;;28.88;12.40;;;;;;;7.01;100.00;102398.06;5102910;28;20030;-69
2022/01/27 03:22:33;;;;;;;26.35;12.30;;;;;;;7.01;100.00;102406.25;5089128;28;20028;-68
2022/01/27 03:24:59;;;;;;;24.45;12.77;;;;;;;6.98;100.00;102394.75;5081757;28;20223;-68
2022/01/27 03:27:26;;;;;;;23.50;12.48;;;;;;;7.08;100.00;102374.31;5083387;28;20028;-69
2022/01/27 03:29:52;;;;;;;27.90;12.55;;;;;;;6.95;100.00;102386.13;5095692;28;20031;-68
2022/01/27 03:32:18;;;;;;;31.98;12.95;;;;;;;7.20;100.00;102356.19;5105635;28;20422;-69
2022/01/27 03:34:43;;;;;;;24.33;11.20;;;;;;;7.19;100.00;102343.59;5102177;28;20389;-68
2022/01/27 03:37:10;;;;;;;28.60;12.30;;;;;;;7.07;100.00;102359.84;5104634;28;20383;-69
2022/01/27 03:39:37;;;;;;;30.48;13.27;;;;;;;7.19;100.00;102349.03;5085364;28;20036;-68
2022/01/27 03:42:05;;;;;;;30.73;12.82;;;;;;;7.09;100.00;102352.28;5098134;28;20514;-69
2022/01/27 03:44:31;;;;;;;29.95;12.32;;;;;;;7.26;100.00;102338.06;5101158;28;20132;-68
2022/01/27 03:46:57;;;;;;;25.02;12.07;;;;;;;7.32;100.00;102348.94;5084656;28;20032;-68
2022/01/27 03:49:24;;;;;;;26.45;13.10;;;;;;;7.22;100.00;102329.50;5104295;28;20035;-69
2022/01/27 03:51:51;;;;;;;28.73;12.13;;;;;;;7.32;100.00;102332.56;5085677;28;20080;-69
2022/01/27 03:54:16;;;;;;;26.65;13.05;;;;;;;7.32;100.00;102324.38;5103790;28;20028;-69
2022/01/27 03:56:42;;;;;;;29.23;12.57;;;;;;;7.46;100.00;102325.09;5102140;28;20498;-68
2022/01/27 03:59:08;;;;;;;27.92;12.63;;;;;;;7.36;100.00;102341.13;5064962;28;20028;-69
2022/01/27 04:01:35;;;;;;;26.50;11.90;;;;;;;7.44;100.00;102331.81;5081636;28;20039;-69
2022/01/27 04:04:01;;;;;;;29.77;12.77;;;;;;;7.41;100.00;102327.66;5085468;28;20444;-68
2022/01/27 04:06:39;;;;;;;30.35;13.48;;;;;;;7.49;100.00;102327.38;5082952;28;20444;-69
2022/01/27 04:09:07;;;;;;;27.67;11.50;;;;;;;7.35;100.00;102332.13;5080910;28;20724;-69
2022/01/27 04:11:33;;;;;;;33.40;12.50;;;;;;;7.57;100.00;102317.22;5083031;28;20450;-68
2022/01/27 04:13:58;;;;;;;27.40;11.50;;;;;;;7.44;100.00;102318.19;5092253;28;20063;-69
2022/01/27 04:16:24;;;;;;;38.10;12.82;;;;;;;7.64;100.00;102310.63;5102291;28;20043;-68
2022/01/27 04:18:50;;;;;;;30.38;12.15;;;;;;;7.62;100.00;102309.19;5104178;28;20062;-70
2022/01/27 04:21:16;;;;;;;22.73;10.98;;;;;;;7.61;100.00;102321.16;5106903;28;20035;-69
2022/01/27 04:23:43;;;;;;;29.52;11.13;;;;;;;7.59;100.00;102315.94;5096201;28;20490;-69
2022/01/27 04:26:10;;;;;;;28.17;12.77;;;;;;;7.54;100.00;102304.84;5081185;28;20057;-69
2022/01/27 04:28:37;;;;;;;32.72;12.00;;;;;;;7.64;100.00;102307.06;5081593;28;20055;-68
2022/01/27 04:31:06;;;;;;;31.92;12.32;;;;;;;7.47;100.00;102315.84;5082063;28;20346;-68
2022/01/27 04:33:34;;;;;;;26.30;11.73;;;;;;;7.79;100.00;102314.88;5083388;28;20068;-68
2022/01/27 04:36:04;;;;;;;29.67;11.45;;;;;;;7.81;100.00;102307.31;5081765;28;20112;-69
2022/01/27 04:42:06;;;;;;;30.45;12.98;;;;;;;7.75;100.00;102319.13;5083246;28;20404;-69
2022/01/27 04:44:00;;;;;;;30.30;11.25;;;;;;;7.65;100.00;102308.72;5069175;28;20171;-68
2022/01/27 04:46:43;;;;;;;28.75;11.77;;;;;;;7.71;100.00;102322.31;5085150;28;20038;-68
2022/01/27 04:49:10;;;;;;;30.88;11.60;;;;;;;7.61;100.00;102313.81;5076284;28;20040;-68
2022/01/27 04:51:35;;;;;;;39.65;12.95;;;;;;;7.57;100.00;102301.66;5086525;28;20075;-68
2022/01/27 04:54:10;;;;;;;38.42;12.25;;;;;;;7.72;100.00;102310.34;5102439;28;20148;-69
2022/01/27 04:56:38;;;;;;;29.30;12.05;;;;;;;7.71;100.00;102305.09;5105070;28;20034;-68
2022/01/27 04:59:11;;;;;;;24.95;11.23;;;;;;;7.84;100.00;102295.94;5102331;28;20556;-68
2022/01/27 05:01:42;;;;;;;29.58;11.95;;;;;;;7.76;100.00;102312.63;5102371;28;20031;-68
2022/01/27 05:04:12;;;;;;;24.73;12.05;;;;;;;7.76;100.00;102301.69;5102355;28;20066;-68
2022/01/27 05:06:37;;;;;;;30.50;11.82;;;;;;;7.79;100.00;102298.50;5104037;28;20088;-69
2022/01/27 05:09:04;;;;;;;31.60;11.82;;;;;;;7.85;100.00;102308.50;5100339;28;20028;-69
2022/01/27 05:11:40;;;;;;;30.90;11.95;;;;;;;7.72;100.00;102310.34;5103421;28;20058;-68
2022/01/27 05:16:30;;;;;;;27.77;10.85;;;;;;;7.77;100.00;102306.06;5100599;28;20325;-69
2022/01/27 05:18:56;;;;;;;30.33;11.35;;;;;;;7.80;100.00;102308.34;5084742;28;20031;-71
2022/01/27 05:21:22;;;;;;;35.92;11.98;;;;;;;7.68;100.00;102298.19;5085411;28;20035;-68
2022/01/27 05:23:49;;;;;;;33.42;11.80;;;;;;;7.71;100.00;102295.00;5102160;28;20019;-68
2022/01/27 05:26:15;;;;;;;30.52;11.77;;;;;;;7.70;100.00;102279.69;5085001;28;20035;-70
2022/01/27 05:28:40;;;;;;;33.78;11.75;;;;;;;7.47;100.00;102287.72;5098813;28;20489;-69
2022/01/27 05:31:06;;;;;;;33.55;12.60;;;;;;;7.55;100.00;102288.25;5099717;28;20128;-69
2022/01/27 05:33:32;;;;;;;34.55;12.50;;;;;;;7.61;100.00;102282.94;5101983;28;20056;-70
2022/01/27 05:35:58;;;;;;;26.90;11.75;;;;;;;7.88;100.00;102269.81;5083866;28;20028;-68
2022/01/27 05:38:23;;;;;;;30.95;11.15;;;;;;;7.75;100.00;102272.72;5101939;28;20046;-67
2022/01/27 05:40:50;;;;;;;31.60;11.27;;;;;;;7.91;100.00;102278.38;5102902;28;20557;-69
2022/01/27 05:43:16;;;;;;;28.48;11.25;;;;;;;7.91;100.00;102272.09;5095236;28;20458;-69
2022/01/27 05:45:41;;;;;;;32.53;11.73;;;;;;;7.86;100.00;102280.16;5085189;28;20115;-69
2022/01/27 05:48:07;;;;;;;25.13;11.07;;;;;;;8.06;100.00;102269.78;5084786;28;20505;-69
2022/01/27 05:50:33;;;;;;;27.05;12.40;;;;;;;7.82;100.00;102268.00;5085509;28;20111;-69
2022/01/27 05:52:59;;;;;;;29.70;10.80;;;;;;;7.88;100.00;102269.81;5066299;28;20036;-69
2022/01/27 05:55:25;;;;;;;38.08;11.45;;;;;;;8.07;100.00;102251.53;5087660;28;20032;-69
2022/01/27 05:57:52;;;;;;;33.42;11.75;;;;;;;7.85;100.00;102257.44;5085508;28;20028;-68
2022/01/27 06:00:18;;;;;;;27.75;11.48;;;;;;;7.81;100.00;102250.78;5084423;28;20080;-68
2022/01/27 06:02:43;;;;;;;29.52;11.45;;;;;;;7.85;100.00;102246.53;5085754;28;20028;-69
2022/01/27 06:05:09;;;;;;;29.58;10.98;;;;;;;7.95;100.00;102248.72;5085343;28;20055;-68
2022/01/27 06:07:35;;;;;;;33.70;11.13;;;;;;;7.97;100.00;102249.34;5067771;28;20028;-68
2022/01/27 06:10:00;;;;;;;35.80;11.65;;;;;;;7.93;100.00;102233.63;5068084;28;20039;-67
2022/01/27 06:12:26;;;;;;;28.70;9.98;;;;;;;8.02;100.00;102244.03;5086975;28;20458;-68
2022/01/27 06:14:52;;;;;;;31.88;10.80;;;;;;;8.10;100.00;102243.69;5081320;28;20556;-68
2022/01/27 06:17:18;;;;;;;38.17;10.80;;;;;;;8.04;100.00;102239.16;5068957;28;20046;-68
2022/01/27 06:19:45;;;;;;;42.83;11.35;;;;;;;7.99;100.00;102238.19;5085396;28;20036;-68
2022/01/27 06:22:11;;;;;;;31.45;11.15;;;;;;;8.13;100.00;102233.38;5051201;28;20446;-68
2022/01/27 06:24:44;;;;;;;29.83;10.25;;;;;;;7.96;100.00;102225.00;5068281;28;20081;-68
2022/01/27 06:27:10;;;;;;;;;;;;;;;8.16;100.00;102228.25;5087673;28;20024;-69
2022/01/27 06:29:37;;;;;;;29.67;10.45;;;;;;;8.10;100.00;102229.22;5082216;28;20281;-68
2022/01/27 06:32:04;;;;;;;33.22;9.80;;;;;;;8.16;100.00;102231.00;5087097;28;20131;-69
2022/01/27 06:34:30;;;;;;;34.30;11.27;;;;;;;8.08;100.00;102236.78;5067909;28;20057;-69
2022/01/27 06:36:56;;;;;;;26.75;10.07;;;;;;;8.07;100.00;102243.31;5084129;28;20032;-68
2022/01/27 06:39:21;;;;;;;31.52;10.35;;;;;;;8.22;100.00;102231.97;5048489;28;20478;-70
2022/01/27 06:41:47;;;;;;;23.70;9.30;;;;;;;8.26;100.00;102239.50;5085334;28;20202;-69
2022/01/27 06:44:13;;;;;;;30.33;10.48;;;;;;;8.13;100.00;102242.38;5079127;28;20027;-68
2022/01/27 06:46:39;;;;;;;23.58;8.55;;;;;;;8.15;100.00;102245.75;5082937;28;20035;-69
2022/01/27 06:49:05;;;;;;;35.97;9.63;;;;;;;8.16;100.00;102249.28;5084797;28;20077;-69
2022/01/27 06:51:31;;;;;;;27.17;10.13;;;;;;;8.18;100.00;102247.16;5083984;28;20459;-69
2022/01/27 06:53:58;;;;;;;29.45;9.23;;;;;;;8.26;100.00;102255.88;5083934;28;20027;-69
2022/01/27 06:56:27;;;;;;;27.95;9.82;;;;;;;8.03;100.00;102253.84;5083884;28;20047;-69
2022/01/27 06:58:53;;;;;;;36.53;10.32;;;;;;;8.14;100.00;102245.97;5082280;28;20066;-70
2022/01/27 07:01:19;;;;;;;29.60;9.43;;;;;;;7.87;100.00;102249.88;5064991;28;20034;-70
2022/01/27 07:03:45;;;;;;;28.85;10.95;;;;;;;7.91;100.00;102275.66;5084267;28;20438;-70
2022/01/27 07:06:12;;;;;;;34.50;10.73;;;;;;;7.72;100.00;102261.19;5063050;28;20036;-69
2022/01/27 07:08:38;;;;;;;32.70;11.73;;;;;;;7.79;100.00;102249.34;5089788;28;20039;-69
2022/01/27 07:11:03;;;;;;;40.80;10.98;;;;;;;7.73;100.00;102272.94;5100247;28;20023;-68
2022/01/27 07:13:28;;;;;;;35.85;10.90;;;;;;;7.77;100.00;102251.47;5103045;28;20366;-70
2022/01/27 07:15:55;;;;;;;35.88;11.02;;;;;;;7.61;100.00;102275.59;5101913;28;20031;-70
2022/01/27 07:18:21;;;;;;;30.52;11.07;;;;;;;7.67;100.00;102271.13;5095384;28;20127;-72
2022/01/27 07:20:46;;;;;;;35.60;10.20;;;;;;;7.63;100.00;102267.19;5083564;28;20590;-69
2022/01/27 07:23:12;;;;;;;36.60;11.07;;;;;;;7.72;100.00;102268.53;5081227;28;20054;-69
2022/01/27 07:25:37;;;;;;;39.42;11.65;;;;;;;7.70;100.00;102273.41;5089158;28;20031;-69
2022/01/27 07:28:03;;;;;;;30.88;10.60;;;;;;;7.62;100.00;102281.88;5079763;28;20059;-70
2022/01/27 07:30:29;;;;;;;34.47;11.02;;;;;;;7.67;100.00;102274.69;5063257;28;20372;-68
2022/01/27 07:32:54;;;;;;;34.70;11.85;;;;;;;7.72;100.00;102274.84;5085204;28;20408;-69
2022/01/27 07:35:20;;;;;;;43.33;11.82;;;;;;;7.67;100.00;102280.16;5083486;28;20370;-70
2022/01/27 07:37:46;;;;;;;36.17;10.52;;;;;;;7.73;100.00;102284.69;5083824;28;20032;-69
2022/01/27 07:40:12;;;;;;;33.60;10.90;;;;;;;7.67;100.00;102291.09;5081063;28;20123;-69
2022/01/27 07:42:40;;;;;;;44.05;12.23;;;;;;;7.69;100.00;102288.94;5082987;28;20122;-69
2022/01/27 07:45:07;;;;;;;41.88;13.05;;;;;;;7.68;100.00;102294.63;5077023;28;20035;-68
2022/01/27 07:47:33;;;;;;;33.88;11.65;;;;;;;7.67;100.00;102290.22;5085030;28;20024;-69
2022/01/27 07:50:00;;;;;;;40.97;12.38;;;;;;;7.57;100.00;102287.19;5082184;28;20371;-69
2022/01/27 07:52:26;;;;;;;37.95;11.60;;;;;;;7.59;100.00;102291.38;5070275;28;20504;-68
2022/01/27 07:54:51;;;;;;;44.13;13.63;;;;;;;7.71;100.00;102291.47;5104809;28;20027;-67
2022/01/27 07:57:17;;;;;;;41.08;12.15;;;;;;;7.66;100.00;102292.13;5102960;28;20276;-69
2022/01/27 07:59:42;;;;;;;38.55;11.65;;;;;;;7.51;100.00;102286.19;5096553;28;20023;-70
2022/01/27 08:02:08;;;;;;;42.97;11.80;;;;;;;7.63;100.00;102294.47;5102378;28;20034;-70
2022/01/27 08:04:33;;;;;;;42.17;12.20;;;;;;;7.85;100.00;102303.03;5101851;28;20480;-69
2022/01/27 08:07:02;;;;;;;45.30;13.00;;;;;;;7.70;100.00;102296.06;5087032;28;20504;-68
2022/01/27 08:09:31;;;;;;;46.20;12.50;;;;;;;7.64;100.00;102294.25;5063874;28;20035;-68
2022/01/27 08:11:57;;;;;;;42.75;11.75;;;;;;;7.59;100.00;102294.09;5085533;28;20158;-68
2022/01/27 08:14:22;;;;;;;37.28;12.40;;;;;;;7.68;100.00;102308.28;5060135;28;20143;-68
2022/01/27 08:16:48;;;;;;;34.42;11.98;;;;;;;7.67;100.00;102314.78;5086613;28;20069;-69
2022/01/27 08:19:13;;;;;;;45.85;12.60;;;;;;;7.72;100.00;102307.59;5067496;28;20438;-69
2022/01/27 08:21:39;;;;;;;42.47;13.05;;;;;;;7.72;100.00;102309.47;5084056;28;20031;-69
2022/01/27 08:24:05;;;;;;;44.03;12.18;;;;;;;7.56;100.00;102305.47;5086439;28;20032;-71
2022/01/27 08:26:42;;;;;;;43.55;12.20;;;;;;;7.80;100.00;102294.72;5088804;28;20450;-69
2022/01/27 08:29:13;;;;;;;32.45;11.23;;;;;;;7.71;100.00;102305.09;5097688;28;20050;-70
2022/01/27 08:31:58;;;;;;;41.25;12.57;;;;;;;7.78;100.00;102302.28;5092580;28;20449;-69
2022/01/27 08:34:33;;;;;;;47.05;13.60;;;;;;;7.75;100.00;102300.03;5101115;28;20619;-68
2022/01/27 08:37:00;;;;;;;40.53;11.45;;;;;;;7.89;100.00;102307.00;5103062;28;20033;-68
2022/01/27 08:39:29;;;;;;;44.58;12.23;;;;;;;7.95;100.00;102292.41;5088294;28;20040;-68
2022/01/27 08:41:55;;;;;;;44.10;11.55;;;;;;;7.94;100.00;102298.97;5081796;28;20024;-69
2022/01/27 08:44:21;;;;;;;39.20;10.38;;;;;;;7.98;100.00;102283.75;5078082;28;20055;-67
2022/01/27 08:46:46;;;;;;;42.85;11.35;;;;;;;7.87;100.00;102287.25;5078353;28;20063;-67
2022/01/27 08:49:12;;;;;;;45.83;11.63;;;;;;;7.95;100.00;102286.13;5080582;28;20068;-68
2022/01/27 08:51:38;;;;;;;34.22;10.75;;;;;;;8.11;100.00;102274.56;5063754;28;20029;-67
2022/01/27 08:54:09;;;;;;;38.28;10.75;;;;;;;8.20;100.00;102286.00;5099828;28;20050;-68
2022/01/27 08:56:34;;;;;;;44.85;11.38;;;;;;;7.99;100.00;102295.53;5090656;28;20031;-68
2022/01/27 08:59:00;;;;;;;38.35;10.23;;;;;;;7.92;100.00;102292.91;5100600;28;20088;-68
2022/01/27 09:01:27;;;;;;;34.47;9.88;;;;;;;8.05;100.00;102295.47;5098692;28;20719;-68
2022/01/27 09:03:53;;;;;;;38.35;10.77;;;;;;;8.05;100.00;102291.88;5103674;28;20067;-68
2022/01/27 09:06:19;;;;;;;34.30;10.20;;;;;;;8.07;100.00;102289.75;5094325;28;20478;-67
2022/01/27 09:08:45;;;;;;;34.72;9.85;;;;;;;8.16;100.00;102291.09;5099550;28;20034;-68
2022/01/27 09:11:11;;;;;;;34.65;10.32;;;;;;;8.26;100.00;102294.13;5083026;28;20024;-67
2022/01/27 09:13:38;;;;;;;29.55;9.63;;;;;;;8.23;100.00;102288.28;5081831;28;20069;-68
2022/01/27 09:16:05;;;;;;;38.17;10.15;;;;;;;8.31;100.00;102289.84;5066504;28;20047;-68
2022/01/27 09:18:32;;;;;;;28.30;9.48;;;;;;;8.33;100.00;102288.56;5051865;28;20044;-66
2022/01/27 09:21:00;;;;;;;24.80;10.02;;;;;;;8.41;100.00;102288.25;5094430;28;20429;-68
2022/01/27 09:23:25;;;;;;;30.75;9.82;;;;;;;8.33;100.00;102280.38;5108257;28;20806;-68
2022/01/27 09:25:55;;;;;;;37.90;9.07;;;;;;;8.35;100.00;102275.50;5109120;28;20516;-67
2022/01/27 09:28:20;;;;;;;28.73;8.80;;;;;;;8.41;100.00;102282.78;5062044;28;20108;-67
2022/01/27 09:30:46;;;;;;;24.95;8.55;;;;;;;8.33;100.00;102277.66;5088283;28;20061;-67
2022/01/27 09:33:13;;;;;;;32.42;9.43;;;;;;;8.40;100.00;102272.09;5096824;28;20058;-67
2022/01/27 09:35:38;;;;;;;28.70;9.07;;;;;;;8.48;100.00;102290.91;5101666;28;20066;-67
2022/01/27 09:38:04;;;;;;;25.73;9.15;;;;;;;8.40;100.00;102286.56;5112309;28;20043;-67
2022/01/27 09:40:33;;;;;;;29.48;8.50;;;;;;;8.46;100.00;102276.63;5075802;28;20345;-67
2022/01/27 09:42:59;;;;;;;26.00;8.13;;;;;;;8.46;100.00;102268.44;5077242;28;20119;-66
2022/01/27 09:45:25;;;;;;;26.52;8.88;;;;;;;8.62;100.00;102277.88;5089417;28;20069;-67
2022/01/27 09:48:10;;;;;;;29.40;8.43;;;;;;;8.69;100.00;102275.88;5090581;28;20050;-66
2022/01/27 09:53:19;;;;;;;24.25;8.32;;;;;;;8.67;100.00;102285.38;5086901;28;20031;-67
2022/01/27 09:55:45;;;;;;;29.70;8.45;;;;;;;8.69;100.00;102283.22;5085058;28;20394;-68
2022/01/27 09:58:32;;;;;;;25.08;8.90;;;;;;;8.82;100.00;102281.13;5083857;28;20122;-68
2022/01/27 10:00:57;;;;;;;37.25;8.85;;;;;;;8.88;100.00;102286.72;5084199;28;20020;-68
2022/01/27 10:03:25;;;;;;;26.17;8.05;;;;;;;9.02;100.00;102288.19;5097769;28;20569;-68
2022/01/27 10:05:51;;;;;;;29.08;9.00;;;;;;;8.92;100.00;102282.44;5106428;28;20026;-67
2022/01/27 10:08:19;;;;;;;26.33;8.55;;;;;;;8.93;100.00;102286.84;5086805;28;20808;-67
2022/01/27 10:10:48;;;;;;;28.88;8.02;;;;;;;8.68;100.00;102284.31;5100504;28;20027;-68
2022/01/27 10:13:47;;;;;;;23.90;8.10;;;;;;;8.68;100.00;102290.63;5081157;28;20046;-68
2022/01/27 10:16:29;;;;;;;30.48;7.95;;;;;;;8.85;100.00;102288.03;5036206;28;20058;-67
2022/01/27 10:19:08;;;;;;;24.70;7.50;;;;;;;8.89;100.00;102296.63;5083758;28;20024;-69
2022/01/27 10:21:35;;;;;;;30.20;7.78;;;;;;;8.75;100.00;102296.81;5081649;28;20522;-68
2022/01/27 10:24:19;;;;;;;21.83;7.38;;;;;;;8.63;100.00;102301.41;5083562;28;20169;-67
2022/01/27 10:26:52;;;;;;;26.90;7.38;;;;;;;8.80;100.00;102296.94;5081660;28;20023;-68
2022/01/27 10:29:32;;;;;;;26.73;7.72;;;;;;;8.64;100.00;102303.91;5080075;28;20063;-68
2022/01/27 10:32:04;;;;;;;25.73;7.90;;;;;;;8.90;100.00;102295.53;5079313;28;20042;-68
2022/01/27 10:34:30;;;;;;;25.25;8.15;;;;;;;8.65;100.00;102302.00;5080666;28;20320;-69
2022/01/27 10:36:56;;;;;;;22.25;6.68;;;;;;;8.90;100.00;102312.75;5065324;28;20221;-68
2022/01/27 10:39:21;;;;;;;25.05;7.43;;;;;;;8.88;100.00;102311.34;5082815;28;20035;-68
2022/01/27 10:42:06;;;;;;;24.60;7.75;;;;;;;9.08;100.00;102300.91;5096006;28;20115;-67
2022/01/27 10:44:48;;;;;;;29.88;7.45;;;;;;;8.98;100.00;102306.13;5101053;28;20046;-69
2022/01/27 10:47:22;;;;;;;24.33;7.07;;;;;;;8.89;100.00;102311.13;5102531;28;20024;-67
2022/01/27 10:50:01;;;;;;;30.10;7.38;;;;;;;9.05;100.00;102312.34;5103658;28;20027;-68
2022/01/27 10:55:04;;;;;;;22.35;6.50;;;;;;;9.14;100.00;102307.34;5104635;28;20054;-68
2022/01/27 10:57:30;;;;;;;31.55;7.80;;;;;;;9.15;100.00;102309.00;5100109;28;20092;-67
2022/01/27 11:00:20;;;;;;;23.60;7.13;;;;;;;9.14;100.00;102313.63;5102732;28;20019;-67
2022/01/27 11:02:56;;;;;;;18.58;6.97;;;;;;;9.05;100.00;102314.22;5103291;28;20035;-67
2022/01/27 11:05:30;;;;;;;27.85;7.38;;;;;;;9.21;100.00;102310.78;5088703;28;20093;-67
2022/01/27 11:07:57;;;;;;;29.27;7.22;;;;;;;8.90;100.00;102310.03;5083298;28;20500;-70
2022/01/27 11:10:23;;;;;;;21.13;5.78;;;;;;;9.10;100.00;102312.47;5079278;28;20387;-68
2022/01/27 11:12:50;;;;;;;22.95;7.63;;;;;;;8.91;100.00;102308.16;5082146;28;20427;-67
2022/01/27 11:15:18;;;;;;;21.00;6.25;;;;;;;9.01;100.00;102311.13;5079529;28;20038;-68
2022/01/27 11:17:46;;;;;;;23.60;6.47;;;;;;;9.07;100.00;102307.47;5082409;28;20210;-67
2022/01/27 11:23:00;;;;;;;23.33;6.15;;;;;;;8.99;100.00;102318.75;5103856;28;20043;-68
2022/01/27 11:27:59;;;;;;;17.13;5.68;;;;;;;8.95;100.00;102304.72;5082910;28;20114;-68
2022/01/27 11:30:37;;;;;;;21.85;6.90;;;;;;;9.26;100.00;102301.88;5078043;28;20046;-68
2022/01/27 11:33:11;;;;;;;18.45;6.35;;;;;;;9.33;100.00;102297.97;5084023;28;20091;-67
2022/01/27 11:35:39;;;;;;;23.38;7.13;;;;;;;9.51;100.00;102298.88;5081070;28;20490;-67
2022/01/27 11:38:05;;;;;;;26.63;7.10;;;;;;;9.60;100.00;102291.16;5081960;28;20043;-67
2022/01/27 11:40:42;;;;;;;22.95;6.82;;;;;;;9.37;100.00;102323.75;5090088;28;20108;-68
2022/01/27 11:43:12;;;;;;;20.95;5.80;;;;;;;9.34;100.00;102309.72;5103147;28;20035;-67
2022/01/27 11:45:40;;;;;;;20.70;6.30;;;;;;;9.62;100.00;102302.69;5102060;27;20035;-66
2022/01/27 11:48:12;;;;;;;18.27;6.65;;;;;;;9.40;100.00;102297.00;5101906;28;20019;-68
2022/01/27 11:53:34;;;;;;;21.48;6.22;;;;;;;9.35;100.00;102304.00;5107319;28;20020;-67
2022/01/27 11:56:02;;;;;;;25.35;6.70;;;;;;;9.27;100.00;102311.75;5082284;28;20066;-68
2022/01/27 11:58:29;;;;;;;20.35;6.82;;;;;;;9.09;100.00;102309.97;5099026;28;20036;-66
2022/01/27 12:01:06;;;;;;;22.27;7.38;;;;;;;9.22;100.00;102330.81;5099782;28;20124;-66
2022/01/27 12:03:33;;;;;;;20.80;6.35;;;;;;;9.22;100.00;102319.84;5102844;28;20358;-67
2022/01/27 12:06:16;;;;;;;27.10;10.00;;;;;;;9.53;100.00;102311.28;5103610;28;20081;-68
2022/01/27 12:08:43;;;;;;;19.67;7.28;;;;;;;9.51;100.00;102316.16;5100882;28;20853;-67